sensor_id;sensor_type;location;lat;lon;timestamp;temperature;humidity
2873;DHT22;1444;49.166;7.312;2023-10-08T00:02:23;15.70;97.10
2873;DHT22;1444;49.166;7.312;2023-10-08T00:04:52;15.60;97.30
2873;DHT22;1444;49.166;7.312;2023-10-08T00:07:20;15.60;97.20
2873;DHT22;1444;49.166;7.312;2023-10-08T00:09:48;15.70;97.10
2873;DHT22;1444;49.166;7.312;2023-10-08T00:12:16;15.80;96.90
2873;DHT22;1444;49.166;7.312;2023-10-08T00:14:46;15.90;97.00
2873;DHT22;1444;49.166;7.312;2023-10-08T00:17:15;15.80;96.80
2873;DHT22;1444;49.166;7.312;2023-10-08T00:19:42;15.70;96.90
2873;DHT22;1444;49.166;7.312;2023-10-08T00:22:09;15.50;97.30
2873;DHT22;1444;49.166;7.312;2023-10-08T00:24:39;15.50;97.90
2873;DHT22;1444;49.166;7.312;2023-10-08T00:27:07;15.50;97.70
2873;DHT22;1444;49.166;7.312;2023-10-08T00:29:34;15.60;97.80
2873;DHT22;1444;49.166;7.312;2023-10-08T00:32:06;15.60;97.60
2873;DHT22;1444;49.166;7.312;2023-10-08T00:34:38;15.60;97.50
2873;DHT22;1444;49.166;7.312;2023-10-08T00:37:08;15.60;97.60
2873;DHT22;1444;49.166;7.312;2023-10-08T00:39:36;15.60;97.70
2873;DHT22;1444;49.166;7.312;2023-10-08T00:42:07;15.60;97.70
2873;DHT22;1444;49.166;7.312;2023-10-08T00:44:34;15.70;97.60
2873;DHT22;1444;49.166;7.312;2023-10-08T00:47:08;15.80;97.60
2873;DHT22;1444;49.166;7.312;2023-10-08T00:49:37;15.80;97.60
2873;DHT22;1444;49.166;7.312;2023-10-08T00:52:19;15.80;97.30
2873;DHT22;1444;49.166;7.312;2023-10-08T00:54:56;15.70;97.20
2873;DHT22;1444;49.166;7.312;2023-10-08T00:57:37;15.70;97.30
2873;DHT22;1444;49.166;7.312;2023-10-08T01:02:48;15.60;97.00
2873;DHT22;1444;49.166;7.312;2023-10-08T01:05:20;15.40;97.10
2873;DHT22;1444;49.166;7.312;2023-10-08T01:07:53;15.40;97.30
2873;DHT22;1444;49.166;7.312;2023-10-08T01:10:21;15.50;97.20
2873;DHT22;1444;49.166;7.312;2023-10-08T01:12:50;15.60;97.00
2873;DHT22;1444;49.166;7.312;2023-10-08T01:15:30;15.50;97.00
2873;DHT22;1444;49.166;7.312;2023-10-08T01:18:03;15.50;97.10
2873;DHT22;1444;49.166;7.312;2023-10-08T01:20:31;15.50;97.00
2873;DHT22;1444;49.166;7.312;2023-10-08T01:23:04;15.30;97.10
2873;DHT22;1444;49.166;7.312;2023-10-08T01:25:36;15.30;97.20
2873;DHT22;1444;49.166;7.312;2023-10-08T01:28:03;15.30;97.10
2873;DHT22;1444;49.166;7.312;2023-10-08T01:30:39;15.30;96.70
2873;DHT22;1444;49.166;7.312;2023-10-08T01:33:08;15.40;97.10
2873;DHT22;1444;49.166;7.312;2023-10-08T01:35:39;15.30;96.90
2873;DHT22;1444;49.166;7.312;2023-10-08T01:38:07;15.20;97.40
2873;DHT22;1444;49.166;7.312;2023-10-08T01:40:41;14.90;96.60
2873;DHT22;1444;49.166;7.312;2023-10-08T01:43:08;14.70;97.20
2873;DHT22;1444;49.166;7.312;2023-10-08T01:45:36;14.50;97.60
2873;DHT22;1444;49.166;7.312;2023-10-08T01:48:06;14.40;97.80
2873;DHT22;1444;49.166;7.312;2023-10-08T01:50:35;14.30;98.10
2873;DHT22;1444;49.166;7.312;2023-10-08T01:55:32;14.10;98.40
2873;DHT22;1444;49.166;7.312;2023-10-08T01:58:12;14.00;98.30
2873;DHT22;1444;49.166;7.312;2023-10-08T02:00:42;13.90;98.50
2873;DHT22;1444;49.166;7.312;2023-10-08T02:03:11;13.80;98.80
2873;DHT22;1444;49.166;7.312;2023-10-08T02:08:08;13.90;99.10
2873;DHT22;1444;49.166;7.312;2023-10-08T02:10:37;14.00;98.90
2873;DHT22;1444;49.166;7.312;2023-10-08T02:13:04;14.20;98.50
2873;DHT22;1444;49.166;7.312;2023-10-08T02:15:31;14.30;98.20
2873;DHT22;1444;49.166;7.312;2023-10-08T02:17:58;14.40;97.80
2873;DHT22;1444;49.166;7.312;2023-10-08T02:20:25;14.40;97.50
2873;DHT22;1444;49.166;7.312;2023-10-08T02:22:53;14.40;97.50
2873;DHT22;1444;49.166;7.312;2023-10-08T02:25:20;14.30;97.50
2873;DHT22;1444;49.166;7.312;2023-10-08T02:27:50;14.20;97.60
2873;DHT22;1444;49.166;7.312;2023-10-08T02:30:17;14.00;97.80
2873;DHT22;1444;49.166;7.312;2023-10-08T02:32:44;13.70;98.50
2873;DHT22;1444;49.166;7.312;2023-10-08T02:35:12;13.60;98.30
2873;DHT22;1444;49.166;7.312;2023-10-08T02:37:40;13.50;98.80
2873;DHT22;1444;49.166;7.312;2023-10-08T02:42:43;13.20;99.40
2873;DHT22;1444;49.166;7.312;2023-10-08T02:45:12;13.10;99.40
2873;DHT22;1444;49.166;7.312;2023-10-08T02:47:41;13.10;99.50
2873;DHT22;1444;49.166;7.312;2023-10-08T02:50:10;13.00;99.80
2873;DHT22;1444;49.166;7.312;2023-10-08T02:52:37;12.90;99.90
2873;DHT22;1444;49.166;7.312;2023-10-08T02:55:05;12.90;99.90
2873;DHT22;1444;49.166;7.312;2023-10-08T02:57:44;12.90;99.90
2873;DHT22;1444;49.166;7.312;2023-10-08T03:00:13;13.00;99.90
2873;DHT22;1444;49.166;7.312;2023-10-08T03:02:40;13.30;99.60
2873;DHT22;1444;49.166;7.312;2023-10-08T03:05:07;13.40;99.00
2873;DHT22;1444;49.166;7.312;2023-10-08T03:07:39;13.60;98.10
2873;DHT22;1444;49.166;7.312;2023-10-08T03:10:06;13.70;97.90
2873;DHT22;1444;49.166;7.312;2023-10-08T03:12:43;13.70;97.60
2873;DHT22;1444;49.166;7.312;2023-10-08T03:15:14;13.80;97.60
2873;DHT22;1444;49.166;7.312;2023-10-08T03:17:54;13.80;97.60
2873;DHT22;1444;49.166;7.312;2023-10-08T03:20:23;13.80;97.60
2873;DHT22;1444;49.166;7.312;2023-10-08T03:23:04;13.80;97.60
2873;DHT22;1444;49.166;7.312;2023-10-08T03:25:37;13.80;97.90
2873;DHT22;1444;49.166;7.312;2023-10-08T03:28:07;13.80;97.80
2873;DHT22;1444;49.166;7.312;2023-10-08T03:30:36;13.80;97.60
2873;DHT22;1444;49.166;7.312;2023-10-08T03:33:13;13.80;97.40
2873;DHT22;1444;49.166;7.312;2023-10-08T03:35:48;13.80;97.00
2873;DHT22;1444;49.166;7.312;2023-10-08T03:38:18;13.80;96.90
2873;DHT22;1444;49.166;7.312;2023-10-08T03:40:47;13.80;97.00
2873;DHT22;1444;49.166;7.312;2023-10-08T03:43:15;13.80;97.10
2873;DHT22;1444;49.166;7.312;2023-10-08T03:45:50;13.70;97.10
2873;DHT22;1444;49.166;7.312;2023-10-08T03:48:20;13.70;97.10
2873;DHT22;1444;49.166;7.312;2023-10-08T03:50:48;13.60;96.80
2873;DHT22;1444;49.166;7.312;2023-10-08T03:53:22;13.50;96.90
2873;DHT22;1444;49.166;7.312;2023-10-08T03:55:49;13.40;97.00
2873;DHT22;1444;49.166;7.312;2023-10-08T03:58:17;13.30;97.60
2873;DHT22;1444;49.166;7.312;2023-10-08T04:00:54;13.20;98.20
2873;DHT22;1444;49.166;7.312;2023-10-08T04:03:33;13.20;97.80
2873;DHT22;1444;49.166;7.312;2023-10-08T04:06:20;13.20;97.20
2873;DHT22;1444;49.166;7.312;2023-10-08T04:08:48;13.10;97.10
2873;DHT22;1444;49.166;7.312;2023-10-08T04:11:28;13.10;97.20
2873;DHT22;1444;49.166;7.312;2023-10-08T04:13:58;13.10;97.60
2873;DHT22;1444;49.166;7.312;2023-10-08T04:18:56;13.00;97.90
2873;DHT22;1444;49.166;7.312;2023-10-08T04:21:24;13.10;97.90
2873;DHT22;1444;49.166;7.312;2023-10-08T04:23:53;13.00;97.50
2873;DHT22;1444;49.166;7.312;2023-10-08T04:26:20;12.90;97.30
2873;DHT22;1444;49.166;7.312;2023-10-08T04:28:49;12.90;97.80
2873;DHT22;1444;49.166;7.312;2023-10-08T04:31:20;12.80;97.60
2873;DHT22;1444;49.166;7.312;2023-10-08T04:33:51;12.80;97.80
2873;DHT22;1444;49.166;7.312;2023-10-08T04:36:18;12.70;97.70
2873;DHT22;1444;49.166;7.312;2023-10-08T04:38:45;12.70;98.00
2873;DHT22;1444;49.166;7.312;2023-10-08T04:41:14;12.70;98.20
2873;DHT22;1444;49.166;7.312;2023-10-08T04:43:44;12.60;98.10
2873;DHT22;1444;49.166;7.312;2023-10-08T04:46:11;12.60;98.00
2873;DHT22;1444;49.166;7.312;2023-10-08T04:48:47;12.60;98.00
2873;DHT22;1444;49.166;7.312;2023-10-08T04:53:47;12.60;97.90
2873;DHT22;1444;49.166;7.312;2023-10-08T04:56:15;12.60;97.80
2873;DHT22;1444;49.166;7.312;2023-10-08T04:58:43;12.60;97.50
2873;DHT22;1444;49.166;7.312;2023-10-08T05:01:12;12.60;97.60
2873;DHT22;1444;49.166;7.312;2023-10-08T05:03:47;12.60;97.80
2873;DHT22;1444;49.166;7.312;2023-10-08T05:06:50;12.70;97.70
2873;DHT22;1444;49.166;7.312;2023-10-08T05:09:27;12.70;97.60
2873;DHT22;1444;49.166;7.312;2023-10-08T05:12:06;12.70;97.60
2873;DHT22;1444;49.166;7.312;2023-10-08T05:14:54;12.60;97.50
2873;DHT22;1444;49.166;7.312;2023-10-08T05:17:43;12.50;97.50
2873;DHT22;1444;49.166;7.312;2023-10-08T05:20:21;12.60;97.60
2873;DHT22;1444;49.166;7.312;2023-10-08T05:23:09;12.60;97.90
2873;DHT22;1444;49.166;7.312;2023-10-08T05:25:46;12.50;98.00
2873;DHT22;1444;49.166;7.312;2023-10-08T05:28:23;12.30;98.10
2873;DHT22;1444;49.166;7.312;2023-10-08T05:30:50;12.20;98.10
2873;DHT22;1444;49.166;7.312;2023-10-08T05:33:20;12.00;98.30
2873;DHT22;1444;49.166;7.312;2023-10-08T05:36:10;12.10;99.30
2873;DHT22;1444;49.166;7.312;2023-10-08T05:38:45;12.00;99.40
2873;DHT22;1444;49.166;7.312;2023-10-08T05:41:26;12.20;98.90
2873;DHT22;1444;49.166;7.312;2023-10-08T05:44:05;12.10;99.20
2873;DHT22;1444;49.166;7.312;2023-10-08T05:46:45;12.00;99.90
2873;DHT22;1444;49.166;7.312;2023-10-08T05:49:26;11.90;99.90
2873;DHT22;1444;49.166;7.312;2023-10-08T05:52:04;11.80;99.40
2873;DHT22;1444;49.166;7.312;2023-10-08T05:54:50;12.00;99.10
2873;DHT22;1444;49.166;7.312;2023-10-08T05:57:34;12.10;98.90
2873;DHT22;1444;49.166;7.312;2023-10-08T06:00:13;12.00;98.40
2873;DHT22;1444;49.166;7.312;2023-10-08T06:02:57;11.90;98.70
2873;DHT22;1444;49.166;7.312;2023-10-08T06:05:37;11.90;98.70
2873;DHT22;1444;49.166;7.312;2023-10-08T06:08:12;12.00;98.60
2873;DHT22;1444;49.166;7.312;2023-10-08T06:10:41;12.10;98.50
2873;DHT22;1444;49.166;7.312;2023-10-08T06:13:10;12.10;98.60
2873;DHT22;1444;49.166;7.312;2023-10-08T06:15:42;12.30;98.80
2873;DHT22;1444;49.166;7.312;2023-10-08T06:18:13;12.20;98.90
2873;DHT22;1444;49.166;7.312;2023-10-08T06:20:41;12.40;99.00
2873;DHT22;1444;49.166;7.312;2023-10-08T06:23:09;12.50;99.00
2873;DHT22;1444;49.166;7.312;2023-10-08T06:25:38;12.70;99.00
2873;DHT22;1444;49.166;7.312;2023-10-08T06:28:13;12.60;99.10
2873;DHT22;1444;49.166;7.312;2023-10-08T06:30:41;12.60;99.00
2873;DHT22;1444;49.166;7.312;2023-10-08T06:33:08;12.70;99.40
2873;DHT22;1444;49.166;7.312;2023-10-08T06:35:35;12.80;98.60
2873;DHT22;1444;49.166;7.312;2023-10-08T06:38:03;12.80;98.80
2873;DHT22;1444;49.166;7.312;2023-10-08T06:40:33;12.80;99.40
2873;DHT22;1444;49.166;7.312;2023-10-08T06:43:07;12.90;99.90
2873;DHT22;1444;49.166;7.312;2023-10-08T06:45:49;13.20;99.90
2873;DHT22;1444;49.166;7.312;2023-10-08T06:48:19;14.00;99.80
2873;DHT22;1444;49.166;7.312;2023-10-08T06:50:47;14.60;99.30
2873;DHT22;1444;49.166;7.312;2023-10-08T06:53:15;15.10;98.70
2873;DHT22;1444;49.166;7.312;2023-10-08T06:55:43;15.90;97.80
2873;DHT22;1444;49.166;7.312;2023-10-08T06:58:13;16.40;96.40
2873;DHT22;1444;49.166;7.312;2023-10-08T07:00:40;17.10;96.60
2873;DHT22;1444;49.166;7.312;2023-10-08T07:03:13;17.70;96.20
2873;DHT22;1444;49.166;7.312;2023-10-08T07:05:42;18.10;95.20
2873;DHT22;1444;49.166;7.312;2023-10-08T07:08:10;18.50;94.20
2873;DHT22;1444;49.166;7.312;2023-10-08T07:10:39;18.80;94.00
2873;DHT22;1444;49.166;7.312;2023-10-08T07:13:07;18.90;93.80
2873;DHT22;1444;49.166;7.312;2023-10-08T07:15:35;19.60;94.10
2873;DHT22;1444;49.166;7.312;2023-10-08T07:18:04;20.10;92.90
2873;DHT22;1444;49.166;7.312;2023-10-08T07:20:37;20.40;92.20
2873;DHT22;1444;49.166;7.312;2023-10-08T07:23:06;20.70;92.00
2873;DHT22;1444;49.166;7.312;2023-10-08T07:25:46;20.80;91.50
2873;DHT22;1444;49.166;7.312;2023-10-08T07:28:18;20.90;91.10
2873;DHT22;1444;49.166;7.312;2023-10-08T07:30:45;21.30;91.30
2873;DHT22;1444;49.166;7.312;2023-10-08T07:33:11;21.50;90.50
2873;DHT22;1444;49.166;7.312;2023-10-08T07:35:45;21.50;90.30
2873;DHT22;1444;49.166;7.312;2023-10-08T07:38:20;21.70;90.30
2873;DHT22;1444;49.166;7.312;2023-10-08T07:40:48;21.70;90.00
2873;DHT22;1444;49.166;7.312;2023-10-08T07:43:15;21.50;89.80
2873;DHT22;1444;49.166;7.312;2023-10-08T07:45:46;21.50;90.20
2873;DHT22;1444;49.166;7.312;2023-10-08T07:48:12;21.50;90.30
2873;DHT22;1444;49.166;7.312;2023-10-08T07:50:42;21.40;89.80
2873;DHT22;1444;49.166;7.312;2023-10-08T07:53:12;21.20;90.10
2873;DHT22;1444;49.166;7.312;2023-10-08T07:55:44;20.90;90.30
2873;DHT22;1444;49.166;7.312;2023-10-08T07:58:12;20.70;91.10
2873;DHT22;1444;49.166;7.312;2023-10-08T08:00:40;20.50;91.50
2873;DHT22;1444;49.166;7.312;2023-10-08T08:03:07;20.30;91.30
2873;DHT22;1444;49.166;7.312;2023-10-08T08:05:35;19.90;92.00
2873;DHT22;1444;49.166;7.312;2023-10-08T08:08:04;19.80;92.70
2873;DHT22;1444;49.166;7.312;2023-10-08T08:10:33;19.30;93.50
2873;DHT22;1444;49.166;7.312;2023-10-08T08:13:03;19.10;93.30
2873;DHT22;1444;49.166;7.312;2023-10-08T08:15:31;19.00;93.40
2873;DHT22;1444;49.166;7.312;2023-10-08T08:17:59;18.90;93.80
2873;DHT22;1444;49.166;7.312;2023-10-08T08:20:25;18.90;94.10
2873;DHT22;1444;49.166;7.312;2023-10-08T08:23:04;18.90;93.70
2873;DHT22;1444;49.166;7.312;2023-10-08T08:25:37;19.00;93.90
2873;DHT22;1444;49.166;7.312;2023-10-08T08:28:11;19.00;94.00
2873;DHT22;1444;49.166;7.312;2023-10-08T08:30:42;19.00;93.90
2873;DHT22;1444;49.166;7.312;2023-10-08T08:33:12;19.00;94.30
2873;DHT22;1444;49.166;7.312;2023-10-08T08:35:47;18.90;94.50
2873;DHT22;1444;49.166;7.312;2023-10-08T08:38:14;19.20;95.40
2873;DHT22;1444;49.166;7.312;2023-10-08T08:40:42;19.40;95.20
2873;DHT22;1444;49.166;7.312;2023-10-08T08:43:09;19.80;95.30
2873;DHT22;1444;49.166;7.312;2023-10-08T08:45:37;19.90;94.30
2873;DHT22;1444;49.166;7.312;2023-10-08T08:48:06;20.00;94.30
2873;DHT22;1444;49.166;7.312;2023-10-08T08:50:34;20.10;94.30
2873;DHT22;1444;49.166;7.312;2023-10-08T08:53:01;20.30;93.70
2873;DHT22;1444;49.166;7.312;2023-10-08T08:55:30;20.30;94.40
2873;DHT22;1444;49.166;7.312;2023-10-08T08:58:00;20.40;93.80
2873;DHT22;1444;49.166;7.312;2023-10-08T09:00:30;20.40;93.30
2873;DHT22;1444;49.166;7.312;2023-10-08T09:02:57;20.50;93.80
2873;DHT22;1444;49.166;7.312;2023-10-08T09:05:24;20.50;93.70
2873;DHT22;1444;49.166;7.312;2023-10-08T09:07:55;20.40;93.00
2873;DHT22;1444;49.166;7.312;2023-10-08T09:10:25;20.40;93.20
2873;DHT22;1444;49.166;7.312;2023-10-08T09:15:25;20.50;93.40
2873;DHT22;1444;49.166;7.312;2023-10-08T09:17:52;20.50;93.00
2873;DHT22;1444;49.166;7.312;2023-10-08T09:20:20;20.80;94.00
2873;DHT22;1444;49.166;7.312;2023-10-08T09:23:05;20.80;93.60
2873;DHT22;1444;49.166;7.312;2023-10-08T09:25:43;20.90;93.70
2873;DHT22;1444;49.166;7.312;2023-10-08T09:28:10;20.80;93.10
2873;DHT22;1444;49.166;7.312;2023-10-08T09:30:40;20.80;93.60
2873;DHT22;1444;49.166;7.312;2023-10-08T09:35:34;20.60;93.30
2873;DHT22;1444;49.166;7.312;2023-10-08T09:38:02;20.60;94.70
2873;DHT22;1444;49.166;7.312;2023-10-08T09:40:29;20.80;93.80
2873;DHT22;1444;49.166;7.312;2023-10-08T09:42:56;21.00;93.90
2873;DHT22;1444;49.166;7.312;2023-10-08T09:45:25;21.10;92.90
2873;DHT22;1444;49.166;7.312;2023-10-08T09:47:55;21.30;93.30
2873;DHT22;1444;49.166;7.312;2023-10-08T09:50:28;21.50;93.50
2873;DHT22;1444;49.166;7.312;2023-10-08T09:53:00;21.70;93.20
2873;DHT22;1444;49.166;7.312;2023-10-08T09:55:29;21.90;93.10
2873;DHT22;1444;49.166;7.312;2023-10-08T09:57:56;22.00;92.60
2873;DHT22;1444;49.166;7.312;2023-10-08T10:00:23;22.10;92.90
2873;DHT22;1444;49.166;7.312;2023-10-08T10:02:58;22.40;92.30
2873;DHT22;1444;49.166;7.312;2023-10-08T10:05:29;22.40;92.90
2873;DHT22;1444;49.166;7.312;2023-10-08T10:07:57;22.30;91.90
2873;DHT22;1444;49.166;7.312;2023-10-08T10:10:27;22.30;92.00
2873;DHT22;1444;49.166;7.312;2023-10-08T10:12:59;22.40;92.00
2873;DHT22;1444;49.166;7.312;2023-10-08T10:15:26;22.50;92.20
2873;DHT22;1444;49.166;7.312;2023-10-08T10:18:00;22.70;92.70
2873;DHT22;1444;49.166;7.312;2023-10-08T10:23:46;23.00;91.50
2873;DHT22;1444;49.166;7.312;2023-10-08T10:26:23;23.10;91.10
2873;DHT22;1444;49.166;7.312;2023-10-08T10:29:17;23.20;91.10
2873;DHT22;1444;49.166;7.312;2023-10-08T10:31:45;23.20;91.40
2873;DHT22;1444;49.166;7.312;2023-10-08T10:34:15;23.30;92.20
2873;DHT22;1444;49.166;7.312;2023-10-08T10:36:45;23.50;90.90
2873;DHT22;1444;49.166;7.312;2023-10-08T10:39:15;23.50;92.10
2873;DHT22;1444;49.166;7.312;2023-10-08T10:41:43;23.50;91.40
2873;DHT22;1444;49.166;7.312;2023-10-08T10:44:10;23.60;91.50
2873;DHT22;1444;49.166;7.312;2023-10-08T10:46:40;23.70;91.10
2873;DHT22;1444;49.166;7.312;2023-10-08T10:49:07;23.80;92.10
2873;DHT22;1444;49.166;7.312;2023-10-08T10:51:45;23.80;91.30
2873;DHT22;1444;49.166;7.312;2023-10-08T10:54:14;23.90;91.80
2873;DHT22;1444;49.166;7.312;2023-10-08T10:56:46;24.10;90.40
2873;DHT22;1444;49.166;7.312;2023-10-08T10:59:13;24.20;90.70
2873;DHT22;1444;49.166;7.312;2023-10-08T11:01:45;24.20;90.10
2873;DHT22;1444;49.166;7.312;2023-10-08T11:04:17;24.60;91.90
2873;DHT22;1444;49.166;7.312;2023-10-08T11:06:48;24.70;91.00
2873;DHT22;1444;49.166;7.312;2023-10-08T11:09:16;25.10;90.60
2873;DHT22;1444;49.166;7.312;2023-10-08T11:12:01;25.10;90.00
2873;DHT22;1444;49.166;7.312;2023-10-08T11:14:37;25.20;89.50
2873;DHT22;1444;49.166;7.312;2023-10-08T11:17:10;25.40;90.90
2873;DHT22;1444;49.166;7.312;2023-10-08T11:19:37;25.60;89.70
2873;DHT22;1444;49.166;7.312;2023-10-08T11:22:05;25.60;88.90
2873;DHT22;1444;49.166;7.312;2023-10-08T11:24:33;25.60;88.10
2873;DHT22;1444;49.166;7.312;2023-10-08T11:27:00;25.70;90.70
2873;DHT22;1444;49.166;7.312;2023-10-08T11:29:41;25.80;88.50
2873;DHT22;1444;49.166;7.312;2023-10-08T11:32:09;25.90;88.30
2873;DHT22;1444;49.166;7.312;2023-10-08T11:34:38;25.90;88.60
2873;DHT22;1444;49.166;7.312;2023-10-08T11:39:45;26.10;88.70
2873;DHT22;1444;49.166;7.312;2023-10-08T11:42:12;26.20;85.30
2873;DHT22;1444;49.166;7.312;2023-10-08T11:45:06;26.40;85.10
2873;DHT22;1444;49.166;7.312;2023-10-08T11:47:44;26.40;86.70
2873;DHT22;1444;49.166;7.312;2023-10-08T11:50:14;26.40;84.80
2873;DHT22;1444;49.166;7.312;2023-10-08T11:52:46;26.40;85.80
2873;DHT22;1444;49.166;7.312;2023-10-08T11:55:13;26.40;82.90
2873;DHT22;1444;49.166;7.312;2023-10-08T12:00:15;26.30;84.10
2873;DHT22;1444;49.166;7.312;2023-10-08T12:02:45;26.40;86.90
2873;DHT22;1444;49.166;7.312;2023-10-08T12:05:12;26.20;85.20
2873;DHT22;1444;49.166;7.312;2023-10-08T12:07:46;26.00;84.70
2873;DHT22;1444;49.166;7.312;2023-10-08T12:10:13;25.60;83.60
2873;DHT22;1444;49.166;7.312;2023-10-08T12:12:42;25.50;85.80
2873;DHT22;1444;49.166;7.312;2023-10-08T12:15:11;25.70;85.30
2873;DHT22;1444;49.166;7.312;2023-10-08T12:17:46;25.70;86.20
2873;DHT22;1444;49.166;7.312;2023-10-08T12:23:01;25.90;84.10
2873;DHT22;1444;49.166;7.312;2023-10-08T12:25:28;26.10;84.10
2873;DHT22;1444;49.166;7.312;2023-10-08T12:27:58;26.30;85.10
2873;DHT22;1444;49.166;7.312;2023-10-08T12:30:28;26.40;86.40
2873;DHT22;1444;49.166;7.312;2023-10-08T12:32:57;26.70;84.40
2873;DHT22;1444;49.166;7.312;2023-10-08T12:35:24;26.90;82.30
2873;DHT22;1444;49.166;7.312;2023-10-08T12:37:51;27.00;82.90
2873;DHT22;1444;49.166;7.312;2023-10-08T12:40:20;27.00;81.80
2873;DHT22;1444;49.166;7.312;2023-10-08T12:42:49;27.10;82.60
2873;DHT22;1444;49.166;7.312;2023-10-08T12:45:16;27.00;81.20
2873;DHT22;1444;49.166;7.312;2023-10-08T12:47:47;26.70;81.20
2873;DHT22;1444;49.166;7.312;2023-10-08T12:50:15;26.70;83.20
2873;DHT22;1444;49.166;7.312;2023-10-08T12:52:42;26.80;83.60
2873;DHT22;1444;49.166;7.312;2023-10-08T12:55:19;26.80;81.30
2873;DHT22;1444;49.166;7.312;2023-10-08T12:57:50;26.50;81.70
2873;DHT22;1444;49.166;7.312;2023-10-08T13:00:21;26.40;81.60
2873;DHT22;1444;49.166;7.312;2023-10-08T13:05:20;26.40;83.00
2873;DHT22;1444;49.166;7.312;2023-10-08T13:07:54;26.40;82.80
2873;DHT22;1444;49.166;7.312;2023-10-08T13:10:23;26.30;83.10
2873;DHT22;1444;49.166;7.312;2023-10-08T13:12:51;26.40;85.00
2873;DHT22;1444;49.166;7.312;2023-10-08T13:15:18;26.70;84.70
2873;DHT22;1444;49.166;7.312;2023-10-08T13:17:45;26.70;81.50
2873;DHT22;1444;49.166;7.312;2023-10-08T13:22:43;26.70;82.00
2873;DHT22;1444;49.166;7.312;2023-10-08T13:25:10;26.90;82.70
2873;DHT22;1444;49.166;7.312;2023-10-08T13:27:39;26.80;82.60
2873;DHT22;1444;49.166;7.312;2023-10-08T13:30:07;26.90;81.20
2873;DHT22;1444;49.166;7.312;2023-10-08T13:32:35;26.80;80.90
2873;DHT22;1444;49.166;7.312;2023-10-08T13:35:04;26.80;80.80
2873;DHT22;1444;49.166;7.312;2023-10-08T13:37:33;26.90;82.40
2873;DHT22;1444;49.166;7.312;2023-10-08T13:40:00;26.90;81.80
2873;DHT22;1444;49.166;7.312;2023-10-08T13:42:28;27.00;82.50
2873;DHT22;1444;49.166;7.312;2023-10-08T13:44:57;27.10;82.70
2873;DHT22;1444;49.166;7.312;2023-10-08T13:47:25;27.30;82.10
2873;DHT22;1444;49.166;7.312;2023-10-08T13:49:53;27.30;80.40
2873;DHT22;1444;49.166;7.312;2023-10-08T13:52:20;27.30;79.30
2873;DHT22;1444;49.166;7.312;2023-10-08T13:54:51;27.20;79.50
2873;DHT22;1444;49.166;7.312;2023-10-08T13:59:46;27.40;81.60
2873;DHT22;1444;49.166;7.312;2023-10-08T14:02:15;27.40;81.00
2873;DHT22;1444;49.166;7.312;2023-10-08T14:04:46;27.40;79.50
2873;DHT22;1444;49.166;7.312;2023-10-08T14:07:16;27.30;80.40
2873;DHT22;1444;49.166;7.312;2023-10-08T14:09:43;27.40;81.10
2873;DHT22;1444;49.166;7.312;2023-10-08T14:12:11;27.10;80.50
2873;DHT22;1444;49.166;7.312;2023-10-08T14:14:39;27.00;79.60
2873;DHT22;1444;49.166;7.312;2023-10-08T14:17:09;27.00;82.90
2873;DHT22;1444;49.166;7.312;2023-10-08T14:19:42;27.00;80.90
2873;DHT22;1444;49.166;7.312;2023-10-08T14:22:17;27.30;81.90
2873;DHT22;1444;49.166;7.312;2023-10-08T14:24:47;27.50;82.50
2873;DHT22;1444;49.166;7.312;2023-10-08T14:27:24;27.60;82.70
2873;DHT22;1444;49.166;7.312;2023-10-08T14:29:56;27.90;82.10
2873;DHT22;1444;49.166;7.312;2023-10-08T14:32:26;27.90;82.50
2873;DHT22;1444;49.166;7.312;2023-10-08T14:34:54;28.00;79.70
2873;DHT22;1444;49.166;7.312;2023-10-08T14:37:39;28.10;79.50
2873;DHT22;1444;49.166;7.312;2023-10-08T14:40:23;28.20;81.30
2873;DHT22;1444;49.166;7.312;2023-10-08T14:43:07;28.20;80.00
2873;DHT22;1444;49.166;7.312;2023-10-08T14:45:37;28.20;80.30
2873;DHT22;1444;49.166;7.312;2023-10-08T14:48:06;28.20;77.90
2873;DHT22;1444;49.166;7.312;2023-10-08T14:50:38;28.00;76.00
2873;DHT22;1444;49.166;7.312;2023-10-08T14:53:04;28.10;76.90
2873;DHT22;1444;49.166;7.312;2023-10-08T14:55:31;28.10;76.70
2873;DHT22;1444;49.166;7.312;2023-10-08T14:58:01;28.10;75.10
2873;DHT22;1444;49.166;7.312;2023-10-08T15:00:33;28.20;79.10
2873;DHT22;1444;49.166;7.312;2023-10-08T15:03:01;28.30;77.20
2873;DHT22;1444;49.166;7.312;2023-10-08T15:05:29;28.20;76.00
2873;DHT22;1444;49.166;7.312;2023-10-08T15:07:58;28.30;76.90
2873;DHT22;1444;49.166;7.312;2023-10-08T15:10:25;28.30;76.40
2873;DHT22;1444;49.166;7.312;2023-10-08T15:12:52;28.30;76.30
2873;DHT22;1444;49.166;7.312;2023-10-08T15:15:19;28.30;78.10
2873;DHT22;1444;49.166;7.312;2023-10-08T15:17:50;28.20;78.60
2873;DHT22;1444;49.166;7.312;2023-10-08T15:20:17;28.20;79.60
2873;DHT22;1444;49.166;7.312;2023-10-08T15:22:47;28.10;79.30
2873;DHT22;1444;49.166;7.312;2023-10-08T15:25:17;28.00;78.70
2873;DHT22;1444;49.166;7.312;2023-10-08T15:27:44;27.90;79.90
2873;DHT22;1444;49.166;7.312;2023-10-08T15:30:13;27.80;81.60
2873;DHT22;1444;49.166;7.312;2023-10-08T15:32:41;27.80;79.00
2873;DHT22;1444;49.166;7.312;2023-10-08T15:35:10;27.70;81.10
2873;DHT22;1444;49.166;7.312;2023-10-08T15:37:40;27.70;82.90
2873;DHT22;1444;49.166;7.312;2023-10-08T15:40:08;27.60;81.80
2873;DHT22;1444;49.166;7.312;2023-10-08T15:45:12;27.30;80.70
2873;DHT22;1444;49.166;7.312;2023-10-08T15:47:39;27.20;81.90
2873;DHT22;1444;49.166;7.312;2023-10-08T15:50:06;26.80;81.10
2873;DHT22;1444;49.166;7.312;2023-10-08T15:52:35;26.80;84.50
2873;DHT22;1444;49.166;7.312;2023-10-08T15:55:02;26.60;87.20
2873;DHT22;1444;49.166;7.312;2023-10-08T15:57:30;26.40;86.90
2873;DHT22;1444;49.166;7.312;2023-10-08T15:59:58;26.20;86.40
2873;DHT22;1444;49.166;7.312;2023-10-08T16:02:25;26.20;87.40
2873;DHT22;1444;49.166;7.312;2023-10-08T16:04:51;26.20;87.10
2873;DHT22;1444;49.166;7.312;2023-10-08T16:07:19;26.20;87.00
2873;DHT22;1444;49.166;7.312;2023-10-08T16:09:46;26.20;85.90
2873;DHT22;1444;49.166;7.312;2023-10-08T16:12:13;26.20;85.40
2873;DHT22;1444;49.166;7.312;2023-10-08T16:14:39;26.00;87.90
2873;DHT22;1444;49.166;7.312;2023-10-08T16:17:08;25.80;88.00
2873;DHT22;1444;49.166;7.312;2023-10-08T16:19:38;25.40;87.40
2873;DHT22;1444;49.166;7.312;2023-10-08T16:22:06;25.30;88.80
2873;DHT22;1444;49.166;7.312;2023-10-08T16:24:34;25.20;89.00
2873;DHT22;1444;49.166;7.312;2023-10-08T16:27:01;25.10;89.50
2873;DHT22;1444;49.166;7.312;2023-10-08T16:29:27;25.10;89.80
2873;DHT22;1444;49.166;7.312;2023-10-08T16:31:56;25.10;89.90
2873;DHT22;1444;49.166;7.312;2023-10-08T16:34:24;25.00;90.00
2873;DHT22;1444;49.166;7.312;2023-10-08T16:36:52;24.90;89.80
2873;DHT22;1444;49.166;7.312;2023-10-08T16:39:19;24.80;88.50
2873;DHT22;1444;49.166;7.312;2023-10-08T16:41:50;24.70;88.50
2873;DHT22;1444;49.166;7.312;2023-10-08T16:44:17;24.60;88.50
2873;DHT22;1444;49.166;7.312;2023-10-08T16:46:43;24.30;89.50
2873;DHT22;1444;49.166;7.312;2023-10-08T16:49:10;24.20;89.80
2873;DHT22;1444;49.166;7.312;2023-10-08T16:51:38;23.90;89.00
2873;DHT22;1444;49.166;7.312;2023-10-08T16:54:06;23.50;89.20
2873;DHT22;1444;49.166;7.312;2023-10-08T16:56:39;23.20;90.40
2873;DHT22;1444;49.166;7.312;2023-10-08T16:59:06;22.90;91.20
2873;DHT22;1444;49.166;7.312;2023-10-08T17:01:35;22.80;90.90
2873;DHT22;1444;49.166;7.312;2023-10-08T17:04:05;22.80;91.10
2873;DHT22;1444;49.166;7.312;2023-10-08T17:06:32;22.50;90.80